Time;durP1;ratioP1;P1;durP2;ratioP2;P2;SDS_P1;SDS_P2;PMS_P1;PMS_P2;Temp;Humidity;BMP_temperature;BMP_pressure;BME280_temperature;BME280_humidity;BME280_pressure;Samples;Min_cycle;Max_cycle;Signal;HPM_P1;HPM_P2
2021/12/01 00:00:14;;;;;;;18.58;11.93;;;;;;;11.31;73.51;99626.38;687773;28;1497;-84
2021/12/01 00:00:35;;;;;;;17.67;12.50;;;;;;;11.33;73.47;99640.31;688078;28;1587;-84
2021/12/01 00:00:55;;;;;;;19.10;12.98;;;;;;;11.30;73.27;99622.03;690614;28;693;-84
2021/12/01 00:01:17;;;;;;;18.97;13.00;;;;;;;11.28;73.17;99621.13;684969;28;1096;-84
2021/12/01 00:01:38;;;;;;;18.50;12.27;;;;;;;11.35;73.49;99633.34;687569;28;1286;-84
2021/12/01 00:02:00;;;;;;;18.88;12.48;;;;;;;11.29;73.51;99623.75;693234;28;1279;-83
2021/12/01 00:02:21;;;;;;;20.30;12.48;;;;;;;11.32;73.34;99623.75;685156;28;1063;-83
2021/12/01 00:02:42;;;;;;;19.83;12.27;;;;;;;11.33;73.15;99624.66;685716;28;1354;-83
2021/12/01 00:03:02;;;;;;;20.48;12.18;;;;;;;11.32;73.32;99605.47;684674;28;1522;-83
2021/12/01 00:03:24;;;;;;;19.10;12.45;;;;;;;11.32;73.06;99615.06;687720;28;768;-83
2021/12/01 00:03:45;;;;;;;19.00;12.75;;;;;;;11.35;73.07;99621.19;685227;28;1246;-83
2021/12/01 00:04:06;;;;;;;18.05;12.70;;;;;;;11.35;72.74;99612.47;688464;28;1199;-83
2021/12/01 00:04:26;;;;;;;17.73;12.32;;;;;;;11.36;73.05;99625.53;687572;28;1438;-84
2021/12/01 00:04:47;;;;;;;18.52;12.25;;;;;;;11.37;73.17;99621.22;688791;28;1413;-83
2021/12/01 00:05:08;;;;;;;18.00;11.93;;;;;;;11.32;73.30;99613.31;690379;28;1177;-83
2021/12/01 00:05:32;;;;;;;19.40;12.25;;;;;;;11.33;73.33;99616.81;690422;28;1232;-83
2021/12/01 00:05:53;;;;;;;19.80;11.93;;;;;;;11.41;73.18;99616.88;687956;28;768;-84
2021/12/01 00:06:13;;;;;;;20.45;12.07;;;;;;;11.31;72.95;99616.78;689607;28;1189;-83
2021/12/01 00:06:35;;;;;;;18.35;11.50;;;;;;;11.31;73.17;99610.72;686209;28;1652;-84
2021/12/01 00:06:56;;;;;;;15.95;11.05;;;;;;;11.29;73.29;99633.34;685118;28;1113;-84
2021/12/01 00:07:17;;;;;;;13.77;10.00;;;;;;;11.30;73.25;99622.03;685011;28;1228;-83
2021/12/01 00:07:38;;;;;;;13.85;9.60;;;;;;;11.32;73.19;99615.06;684902;28;1759;-82
2021/12/01 00:07:59;;;;;;;15.13;9.18;;;;;;;11.38;73.31;99638.63;685173;28;1154;-83
2021/12/01 00:08:20;;;;;;;15.88;9.55;;;;;;;11.31;73.12;99606.34;687495;28;1291;-82
2021/12/01 00:08:41;;;;;;;15.65;9.70;;;;;;;11.37;73.16;99610.75;690237;28;1605;-83
2021/12/01 00:09:04;;;;;;;15.63;9.70;;;;;;;11.30;73.28;99598.53;690559;28;1119;-82
2021/12/01 00:09:25;;;;;;;16.08;9.85;;;;;;;11.29;73.13;99594.16;687270;28;1243;-83
2021/12/01 00:09:45;;;;;;;16.58;10.20;;;;;;;11.40;73.26;99613.38;687755;28;1018;-82
2021/12/01 00:10:07;;;;;;;18.30;10.30;;;;;;;11.34;73.18;99600.28;689635;28;1344;-83
2021/12/01 00:10:29;;;;;;;16.88;9.68;;;;;;;11.38;73.08;99607.28;687554;28;1626;-83
2021/12/01 00:10:50;;;;;;;14.20;9.40;;;;;;;11.32;72.99;99595.03;690524;28;1468;-82
2021/12/01 00:11:11;;;;;;;13.70;9.07;;;;;;;11.36;72.97;99599.41;690278;28;1442;-82
2021/12/01 00:11:32;;;;;;;12.93;8.80;;;;;;;11.34;73.15;99605.50;693280;28;1209;-84
2021/12/01 00:11:52;;;;;;;12.00;8.40;;;;;;;11.36;73.07;99603.75;687874;28;831;-83
2021/12/01 00:12:13;;;;;;;12.57;8.30;;;;;;;11.37;72.96;99595.94;691994;28;1564;-83
2021/12/01 00:12:34;;;;;;;12.43;8.30;;;;;;;11.38;72.92;99596.81;685169;28;1020;-83
2021/12/01 00:12:55;;;;;;;11.85;8.20;;;;;;;11.33;72.96;99582.84;690663;28;745;-83
2021/12/01 00:13:18;;;;;;;12.82;8.00;;;;;;;11.31;73.16;99589.81;690280;28;1118;-83
2021/12/01 00:13:39;;;;;;;12.40;7.70;;;;;;;11.33;73.05;99604.63;690627;28;799;-82
2021/12/01 00:14:15;;;;;;;13.23;7.60;;;;;;;11.36;73.21;99595.91;682361;28;1340;-83
2021/12/01 00:14:35;;;;;;;11.60;7.22;;;;;;;11.30;73.22;99585.47;687172;28;975;-83
2021/12/01 00:14:56;;;;;;;11.80;7.20;;;;;;;11.29;73.09;99602.84;690593;28;1209;-83
2021/12/01 00:15:17;;;;;;;11.55;7.38;;;;;;;11.20;73.27;99603.66;690772;28;1170;-84
2021/12/01 00:15:39;;;;;;;17.10;8.23;;;;;;;11.29;73.31;99600.25;685181;28;880;-82
2021/12/01 00:16:01;;;;;;;19.92;8.80;;;;;;;11.28;73.14;99595.00;685238;28;1029;-83
2021/12/01 00:16:22;;;;;;;20.38;8.98;;;;;;;11.26;73.35;99602.84;685493;28;1396;-83
2021/12/01 00:16:42;;;;;;;15.13;8.50;;;;;;;11.27;73.28;99591.53;690423;28;1555;-84
2021/12/01 00:17:03;;;;;;;13.88;7.85;;;;;;;11.29;73.32;99602.00;687669;28;1287;-83
2021/12/01 00:17:24;;;;;;;12.80;7.22;;;;;;;11.25;73.15;99585.44;684858;28;1246;-84
2021/12/01 00:17:45;;;;;;;11.90;6.77;;;;;;;11.24;73.46;99595.00;688468;28;1256;-83
2021/12/01 00:18:05;;;;;;;8.30;6.13;;;;;;;11.13;73.60;99590.56;684890;28;1591;-83
2021/12/01 00:18:26;;;;;;;8.05;6.15;;;;;;;11.14;73.42;99580.16;690209;28;1499;-84
2021/12/01 00:18:47;;;;;;;8.77;6.15;;;;;;;11.17;73.56;99595.81;690455;28;1319;-83
2021/12/01 00:19:07;;;;;;;9.98;6.65;;;;;;;11.18;73.91;99600.16;683568;28;1166;-83
2021/12/01 00:19:29;;;;;;;9.70;6.70;;;;;;;11.22;73.85;99599.34;681523;28;1982;-83
2021/12/01 00:19:50;;;;;;;9.43;6.82;;;;;;;11.19;73.77;99588.84;687089;28;1093;-83
2021/12/01 00:20:13;;;;;;;8.45;6.25;;;;;;;11.26;73.47;99602.84;682370;28;1195;-83
2021/12/01 00:20:34;;;;;;;8.85;6.40;;;;;;;11.29;73.38;99602.84;687547;28;1446;-83
2021/12/01 00:20:56;;;;;;;8.18;5.80;;;;;;;11.26;73.15;99586.28;685238;28;1198;-83
2021/12/01 00:21:17;;;;;;;7.80;5.97;;;;;;;11.35;73.21;99607.25;684967;28;1613;-83
2021/12/01 00:21:38;;;;;;;9.82;5.90;;;;;;;11.30;73.03;99609.81;685177;28;752;-83
2021/12/01 00:21:58;;;;;;;10.80;6.40;;;;;;;11.29;73.32;99592.41;687803;28;1282;-84
2021/12/01 00:22:20;;;;;;;11.32;6.10;;;;;;;11.31;73.04;99576.75;687509;28;1133;-82
2021/12/01 00:22:41;;;;;;;8.63;5.68;;;;;;;11.30;73.38;99588.94;688812;28;1599;-82
2021/12/01 00:23:03;;;;;;;7.60;5.30;;;;;;;11.33;73.27;99603.75;690156;28;1272;-83
2021/12/01 00:23:24;;;;;;;7.43;5.30;;;;;;;11.26;73.19;99586.28;687571;28;1303;-83
2021/12/01 00:23:50;;;;;;;8.13;5.55;;;;;;;11.32;72.87;99592.41;685111;28;862;-83
2021/12/01 00:24:16;;;;;;;7.80;5.60;;;;;;;11.22;73.16;99565.41;690333;28;1255;-84
2021/12/01 00:24:37;;;;;;;7.82;5.60;;;;;;;11.21;73.43;99579.31;687839;28;862;-83
2021/12/01 00:24:57;;;;;;;7.78;5.50;;;;;;;11.24;73.29;99589.78;687874;28;791;-83
2021/12/01 00:25:24;;;;;;;8.07;5.50;;;;;;;11.19;73.48;99583.63;690335;28;1187;-82
2021/12/01 00:25:48;;;;;;;6.53;5.18;;;;;;;11.24;73.51;99583.66;687358;28;1896;-81
2021/12/01 00:26:09;;;;;;;6.85;5.18;;;;;;;11.27;73.58;99588.03;687623;28;1219;-84
2021/12/01 00:26:29;;;;;;;6.50;5.18;;;;;;;11.32;73.44;99575.88;687625;28;1472;-83
2021/12/01 00:26:51;;;;;;;6.73;5.27;;;;;;;11.26;73.28;99565.41;690525;28;1181;-82
2021/12/01 00:27:11;;;;;;;7.05;5.50;;;;;;;11.26;73.29;99570.63;687656;28;1402;-83
2021/12/01 00:27:32;;;;;;;10.20;5.40;;;;;;;11.24;73.13;99561.03;687449;28;1131;-83
2021/12/01 00:27:54;;;;;;;9.43;5.07;;;;;;;11.28;73.19;99563.66;685705;28;1032;-82
2021/12/01 00:28:15;;;;;;;7.82;4.70;;;;;;;11.32;73.26;99583.72;682843;28;1233;-82
2021/12/01 00:28:36;;;;;;;5.00;4.50;;;;;;;11.31;73.12;99556.72;682517;29;808;-82
2021/12/01 00:28:56;;;;;;;5.00;4.50;;;;;;;11.34;73.23;99571.53;682551;29;840;-82
2021/12/01 00:29:17;;;;;;;4.80;4.30;;;;;;;11.32;73.09;99565.44;684374;28;1259;-83
2021/12/01 00:29:38;;;;;;;5.20;4.50;;;;;;;11.37;72.95;99576.81;684670;28;1245;-83
2021/12/01 00:29:59;;;;;;;5.20;4.50;;;;;;;11.34;72.90;99561.09;682416;29;1155;-82
2021/12/01 00:30:21;;;;;;;5.00;4.50;;;;;;;11.32;73.11;99561.06;682302;28;1207;-83
2021/12/01 00:30:42;;;;;;;6.07;4.90;;;;;;;11.40;72.85;99579.41;688775;28;1287;-82
2021/12/01 00:31:03;;;;;;;6.10;4.90;;;;;;;11.33;72.82;99568.06;690190;28;1089;-82
2021/12/01 00:31:24;;;;;;;6.68;5.00;;;;;;;11.35;72.97;99570.66;685083;28;951;-83
2021/12/01 00:31:45;;;;;;;6.93;4.70;;;;;;;11.32;73.07;99568.06;687400;28;1364;-82
2021/12/01 00:32:08;;;;;;;7.18;4.88;;;;;;;11.32;72.84;99557.59;682769;28;1683;-82
2021/12/01 00:32:29;;;;;;;6.07;4.65;;;;;;;11.32;72.83;99562.84;683584;28;1604;-82
2021/12/01 00:32:53;;;;;;;5.60;4.40;;;;;;;11.33;72.71;99557.63;687667;28;1389;-83
2021/12/01 00:33:17;;;;;;;5.45;4.30;;;;;;;11.38;72.71;99566.34;687556;28;1215;-83
2021/12/01 00:33:40;;;;;;;5.40;4.13;;;;;;;11.32;72.53;99550.63;690048;28;1820;-83
2021/12/01 00:34:01;;;;;;;5.20;4.00;;;;;;;11.40;72.82;99558.53;687598;28;1276;-82
2021/12/01 00:34:22;;;;;;;5.10;3.90;;;;;;;11.42;72.37;99577.69;687326;28;1465;-83
2021/12/01 00:34:43;;;;;;;4.30;3.83;;;;;;;11.48;72.43;99567.28;687914;28;1142;-83
2021/12/01 00:35:06;;;;;;;3.80;3.50;;;;;;;11.52;72.75;99574.28;687413;28;1332;-84
2021/12/01 00:35:27;;;;;;;3.83;3.50;;;;;;;11.45;72.37;99574.22;684972;28;1301;-83
2021/12/01 00:36:08;;;;;;;4.60;3.60;;;;;;;11.50;72.54;99582.97;685033;28;837;-83
2021/12/01 00:36:28;;;;;;;4.18;3.50;;;;;;;11.45;72.40;99572.50;681513;29;1568;-82
2021/12/01 00:36:49;;;;;;;3.90;3.60;;;;;;;11.31;72.36;99555.88;682642;29;1229;-82
2021/12/01 00:37:11;;;;;;;3.70;3.40;;;;;;;11.31;72.83;99574.16;685248;28;1192;-83
2021/12/01 00:37:32;;;;;;;3.80;3.50;;;;;;;11.32;72.59;99565.44;688170;28;1119;-83
2021/12/01 00:37:52;;;;;;;3.80;3.50;;;;;;;11.30;72.95;99554.97;688252;28;772;-83
2021/12/01 00:38:14;;;;;;;3.87;3.57;;;;;;;11.26;72.96;99558.47;687798;28;1164;-83
2021/12/01 00:38:35;;;;;;;3.78;3.47;;;;;;;11.33;73.07;99562.84;687075;28;1260;-83
2021/12/01 00:38:56;;;;;;;3.30;3.10;;;;;;;11.38;72.89;99558.50;685593;28;1273;-83
2021/12/01 00:39:17;;;;;;;3.03;2.83;;;;;;;11.43;72.42;99557.66;687415;28;1196;-83
2021/12/01 00:39:37;;;;;;;2.90;2.70;;;;;;;11.45;72.49;99550.69;684866;28;1915;-83
2021/12/01 00:39:59;;;;;;;3.33;3.03;;;;;;;11.41;72.35;99565.50;682801;28;827;-84
2021/12/01 00:40:20;;;;;;;4.10;3.10;;;;;;;11.43;72.59;99555.91;685017;28;1284;-83
2021/12/01 00:40:41;;;;;;;4.40;3.05;;;;;;;11.37;72.30;99543.69;690837;28;803;-83
2021/12/01 00:41:04;;;;;;;4.00;3.10;;;;;;;11.45;72.26;99556.81;690725;28;1083;-81
2021/12/01 00:41:25;;;;;;;3.60;3.30;;;;;;;11.48;72.35;99551.59;685463;28;1204;-83
2021/12/01 00:41:48;;;;;;;3.42;3.20;;;;;;;11.41;72.38;99549.81;682786;29;1255;-84
2021/12/01 00:42:09;;;;;;;3.20;3.00;;;;;;;11.43;72.37;99550.69;686904;28;1879;-83
2021/12/01 00:42:29;;;;;;;3.10;2.90;;;;;;;11.38;72.44;99550.66;688075;28;1319;-83
2021/12/01 00:42:50;;;;;;;3.13;2.83;;;;;;;11.37;72.12;99541.09;685470;28;1252;-84
2021/12/01 00:43:16;;;;;;;3.22;2.90;;;;;;;11.41;72.20;99541.13;688032;28;1147;-83
2021/12/01 00:43:41;;;;;;;3.50;2.80;;;;;;;11.43;72.24;99558.53;688190;28;1102;-83
2021/12/01 00:44:01;;;;;;;2.92;2.72;;;;;;;11.45;72.37;99554.19;688225;28;795;-84
2021/12/01 00:44:23;;;;;;;2.90;2.70;;;;;;;11.39;72.20;99556.78;685379;28;1255;-83
2021/12/01 00:44:53;;;;;;;3.03;2.83;;;;;;;11.43;72.40;99540.25;684715;28;1388;-85
2021/12/01 00:45:19;;;;;;;3.00;2.80;;;;;;;11.45;72.06;99548.97;685927;28;1411;-83
2021/12/01 00:45:46;;;;;;;3.00;2.80;;;;;;;11.43;72.17;99536.78;685461;28;1233;-83
2021/12/01 00:46:56;;;;;;;3.00;2.80;;;;;;;11.37;71.99;99537.63;690677;28;1257;-83
2021/12/01 00:47:05;;;;;;;2.85;2.65;;;;;;;11.45;72.11;99551.59;682506;28;1218;-83
2021/12/01 00:47:43;;;;;;;2.70;2.50;;;;;;;11.40;72.40;99541.97;685392;28;1219;-84
2021/12/01 00:48:04;;;;;;;2.70;2.50;;;;;;;11.37;72.14;99548.94;682993;28;1015;-83
2021/12/01 00:48:26;;;;;;;2.80;2.60;;;;;;;11.35;72.15;99529.78;688209;28;1278;-84
2021/12/01 00:48:46;;;;;;;2.65;2.45;;;;;;;11.33;72.12;99551.53;688092;28;1276;-84
2021/12/01 00:49:07;;;;;;;3.20;2.60;;;;;;;11.34;72.25;99533.25;688668;28;1146;-83
2021/12/01 00:49:30;;;;;;;2.50;2.30;;;;;;;11.39;72.33;99548.94;687361;28;1304;-83
2021/12/01 00:49:50;;;;;;;2.53;2.25;;;;;;;11.36;72.45;99549.78;688200;28;760;-83
2021/12/01 00:50:14;;;;;;;2.20;2.10;;;;;;;11.34;72.22;99537.59;689607;28;1264;-84
2021/12/01 00:50:36;;;;;;;2.50;2.40;;;;;;;11.41;72.23;99568.09;688215;28;841;-84
2021/12/01 00:50:58;;;;;;;2.47;2.38;;;;;;;11.34;72.17;99537.59;688100;28;1114;-82
2021/12/01 00:51:18;;;;;;;2.65;2.45;;;;;;;11.38;72.36;99536.75;687642;28;1244;-84
2021/12/01 00:51:39;;;;;;;2.50;2.30;;;;;;;11.34;72.17;99555.88;685652;28;799;-84
2021/12/01 00:52:00;;;;;;;2.57;2.23;;;;;;;11.35;72.17;99565.44;687335;28;1233;-83
2021/12/01 00:52:21;;;;;;;2.40;2.20;;;;;;;11.36;72.14;99569.81;690686;28;1210;-84
2021/12/01 00:53:04;;;;;;;2.40;2.30;;;;;;;11.29;72.38;99544.53;685522;28;1287;-83
2021/12/01 00:53:25;;;;;;;3.30;2.58;;;;;;;11.20;72.67;99559.25;693901;28;1842;-83
2021/12/01 00:53:46;;;;;;;3.10;2.45;;;;;;;11.25;72.61;99548.88;690766;28;1093;-84
2021/12/01 00:54:06;;;;;;;3.10;2.45;;;;;;;11.20;72.91;99554.03;682626;29;1122;-84
2021/12/01 00:54:27;;;;;;;2.60;2.40;;;;;;;11.10;72.69;99526.16;690797;28;1151;-83
2021/12/01 00:54:48;;;;;;;2.70;2.50;;;;;;;11.08;72.85;99514.84;690711;28;1405;-81
2021/12/01 00:55:09;;;;;;;2.85;2.65;;;;;;;11.10;72.75;99520.91;692394;28;1194;-82
2021/12/01 00:55:30;;;;;;;3.10;2.90;;;;;;;11.19;72.86;99534.03;690730;28;1157;-81
2021/12/01 00:55:51;;;;;;;3.00;2.80;;;;;;;11.25;72.76;99533.22;688274;28;769;-83
2021/12/01 00:56:12;;;;;;;2.78;2.65;;;;;;;11.27;72.64;99547.13;690737;28;1193;-83
2021/12/01 00:56:32;;;;;;;2.60;2.50;;;;;;;11.23;72.63;99522.75;690836;28;1262;-83
2021/12/01 00:56:53;;;;;;;2.60;2.50;;;;;;;11.27;72.89;99525.38;690548;28;1202;-82
2021/12/01 00:57:14;;;;;;;2.78;2.58;;;;;;;11.20;72.85;99525.31;688996;28;1161;-83
2021/12/01 00:57:35;;;;;;;2.57;2.37;;;;;;;11.21;72.78;99519.25;688076;28;1225;-83
2021/12/01 00:57:56;;;;;;;2.80;2.50;;;;;;;11.30;72.85;99525.41;687897;28;1497;-83
2021/12/01 00:58:17;;;;;;;2.70;2.50;;;;;;;11.32;72.45;99534.97;685681;28;1226;-84
2021/12/01 00:58:37;;;;;;;2.70;2.50;;;;;;;11.27;72.64;99521.03;688748;28;1517;-83
2021/12/01 00:58:58;;;;;;;2.60;2.50;;;;;;;11.21;72.79;99511.44;688215;28;855;-81
2021/12/01 00:59:19;;;;;;;2.70;2.60;;;;;;;11.28;72.78;99524.50;690042;28;1140;-83
2021/12/01 00:59:39;;;;;;;2.60;2.50;;;;;;;11.27;72.65;99525.38;688116;28;1926;-82
2021/12/01 01:00:01;;;;;;;2.60;2.50;;;;;;;11.27;72.52;99509.69;688323;28;1120;-83
2021/12/01 01:00:24;;;;;;;2.47;2.38;;;;;;;11.31;72.49;99516.69;690567;28;1232;-83
2021/12/01 01:00:48;;;;;;;2.40;2.30;;;;;;;11.18;72.68;99515.75;688192;28;1337;-83
2021/12/01 01:01:11;;;;;;;2.75;2.42;;;;;;;11.27;72.50;99507.09;689279;28;1301;-83
2021/12/01 01:01:32;;;;;;;2.88;2.50;;;;;;;11.27;72.42;99504.47;688509;28;1287;-84
2021/12/01 01:01:53;;;;;;;3.17;2.90;;;;;;;11.24;72.41;99500.09;690738;28;823;-83
2021/12/01 01:02:14;;;;;;;6.60;3.00;;;;;;;11.24;72.72;99505.31;683614;28;1474;-83
2021/12/01 01:02:36;;;;;;;6.23;2.93;;;;;;;11.10;72.71;99494.81;685577;28;708;-83
2021/12/01 01:02:59;;;;;;;6.50;2.83;;;;;;;11.17;72.67;99520.09;685530;28;905;-83
2021/12/01 01:03:20;;;;;;;2.70;2.50;;;;;;;11.13;73.04;99499.19;685446;28;1116;-83
2021/12/01 01:03:41;;;;;;;2.70;2.50;;;;;;;11.17;72.62;99514.88;685211;28;1367;-83
2021/12/01 01:04:01;;;;;;;2.63;2.43;;;;;;;11.14;73.17;99507.03;684889;28;1354;-83
2021/12/01 01:04:27;;;;;;;2.83;2.63;;;;;;;11.09;73.00;99507.03;688093;28;1107;-82
2021/12/01 01:04:47;;;;;;;3.00;2.80;;;;;;;11.07;72.88;99503.50;688976;28;760;-83
2021/12/01 01:05:10;;;;;;;2.80;2.60;;;;;;;11.13;73.04;99513.13;686087;28;1068;-82
2021/12/01 01:05:30;;;;;;;2.60;2.40;;;;;;;11.14;73.04;99520.09;682577;28;1243;-83
2021/12/01 01:05:51;;;;;;;2.60;2.40;;;;;;;11.10;73.21;99507.88;682824;29;729;-83
2021/12/01 01:06:11;;;;;;;2.50;2.40;;;;;;;11.09;72.83;99513.97;689272;28;1296;-84
2021/12/01 01:06:32;;;;;;;2.40;2.30;;;;;;;11.10;73.07;99497.44;685222;28;1177;-83
2021/12/01 01:06:53;;;;;;;2.53;2.30;;;;;;;11.20;73.01;99500.97;690878;28;1310;-83
2021/12/01 01:07:13;;;;;;;2.60;2.20;;;;;;;11.09;72.75;99503.53;688970;28;1212;-84
2021/12/01 01:07:34;;;;;;;2.50;2.30;;;;;;;11.12;72.93;99516.56;688803;28;1536;-83
2021/12/01 01:07:56;;;;;;;2.20;2.10;;;;;;;11.08;73.28;99483.50;688023;28;1367;-83
2021/12/01 01:08:17;;;;;;;2.50;2.40;;;;;;;11.08;72.98;99488.72;686962;28;1333;-83
2021/12/01 01:08:38;;;;;;;2.42;2.30;;;;;;;11.11;72.81;99504.38;689264;28;1900;-82
2021/12/01 01:09:00;;;;;;;3.80;2.40;;;;;;;11.15;72.92;99490.50;690898;28;779;-83
2021/12/01 01:09:23;;;;;;;4.15;2.20;;;;;;;11.13;73.22;99502.69;687055;28;1368;-82
2021/12/01 01:09:44;;;;;;;2.30;2.10;;;;;;;11.14;73.02;99512.25;686661;28;1444;-83
2021/12/01 01:10:17;;;;;;;2.45;2.25;;;;;;;11.08;72.99;99504.38;688176;28;1442;-83
2021/12/01 01:16:23;;;;;;;2.30;2.20;;;;;;;11.16;72.68;99518.34;693184;28;1048;-83
2021/12/01 01:16:44;;;;;;;2.42;2.33;;;;;;;11.12;72.70;99484.41;694950;28;794;-83
2021/12/01 01:17:08;;;;;;;2.50;2.40;;;;;;;11.11;73.00;99493.94;688848;28;1417;-83
2021/12/01 01:17:38;;;;;;;2.50;2.40;;;;;;;11.12;73.07;99510.50;685288;28;1201;-82
2021/12/01 01:18:05;;;;;;;2.60;2.40;;;;;;;11.13;73.18;99497.47;685343;28;832;-83
2021/12/01 01:18:29;;;;;;;2.55;2.45;;;;;;;11.09;72.94;99483.53;682711;28;980;-83
2021/12/01 01:19:02;;;;;;;2.60;2.40;;;;;;;11.18;72.85;99500.94;685385;28;1088;-83
2021/12/01 01:19:23;;;;;;;2.67;2.47;;;;;;;11.17;73.16;99499.22;687349;28;1406;-82
2021/12/01 01:19:44;;;;;;;2.70;2.50;;;;;;;11.18;72.89;99494.88;687828;28;1898;-83
2021/12/01 01:20:08;;;;;;;2.90;2.60;;;;;;;11.12;72.85;99495.69;684925;28;1610;-83
2021/12/01 01:20:28;;;;;;;2.90;2.70;;;;;;;11.17;72.75;99491.38;685345;28;996;-83
2021/12/01 01:20:49;;;;;;;2.90;2.70;;;;;;;11.16;72.98;99480.91;690785;28;1241;-83
2021/12/01 01:21:10;;;;;;;2.70;2.60;;;;;;;11.17;72.84;99488.75;691826;28;1320;-82
2021/12/01 01:21:38;;;;;;;2.72;2.63;;;;;;;11.09;72.88;99477.41;685328;28;1135;-84
2021/12/01 01:22:00;;;;;;;2.85;2.75;;;;;;;11.19;73.00;99486.16;684941;28;1499;-82
2021/12/01 01:22:22;;;;;;;2.80;2.70;;;;;;;11.13;73.12;99484.41;685085;28;1206;-83
2021/12/01 01:22:42;;;;;;;2.97;2.80;;;;;;;11.03;73.17;99480.88;693459;28;1365;-83
2021/12/01 01:23:03;;;;;;;3.10;2.80;;;;;;;11.07;73.11;99468.72;685246;28;1195;-83
2021/12/01 01:23:24;;;;;;;3.10;2.80;;;;;;;11.09;72.92;99472.19;682526;28;1184;-83
2021/12/01 01:23:47;;;;;;;2.70;2.50;;;;;;;11.16;72.97;99470.47;687981;28;1403;-82
2021/12/01 01:24:09;;;;;;;2.60;2.50;;;;;;;11.12;72.91;99474.81;687828;28;1217;-82
2021/12/01 01:24:29;;;;;;;2.60;2.50;;;;;;;11.14;73.01;99472.22;687603;28;1595;-82
2021/12/01 01:25:05;;;;;;;2.85;2.70;;;;;;;11.17;72.91;99478.31;690764;28;1184;-82
2021/12/01 01:25:25;;;;;;;2.95;2.75;;;;;;;11.18;72.75;99467.00;688088;28;1472;-83
2021/12/01 01:25:46;;;;;;;2.97;2.78;;;;;;;11.05;72.84;99462.63;685802;28;952;-83
2021/12/01 01:26:18;;;;;;;2.90;2.70;;;;;;;11.05;72.90;99467.84;687894;28;1299;-84
2021/12/01 01:26:38;;;;;;;2.75;2.55;;;;;;;11.08;73.14;99478.28;686579;28;1606;-82
2021/12/01 01:26:59;;;;;;;2.80;2.60;;;;;;;11.12;73.18;99464.38;693498;28;1183;-82
2021/12/01 01:27:24;;;;;;;2.60;2.50;;;;;;;11.13;72.80;99468.75;689937;28;1099;-84
2021/12/01 01:27:44;;;;;;;2.90;2.70;;;;;;;11.18;72.90;99464.41;690501;28;1643;-83
2021/12/01 01:28:05;;;;;;;3.10;2.90;;;;;;;11.16;73.02;99465.25;682176;29;1460;-83
2021/12/01 01:28:26;;;;;;;3.10;2.90;;;;;;;11.18;72.99;99474.84;685391;28;973;-84
2021/12/01 01:28:47;;;;;;;3.15;2.85;;;;;;;11.18;72.87;99474.84;682752;29;1177;-84
2021/12/01 01:29:08;;;;;;;3.20;2.90;;;;;;;11.12;72.98;99451.31;682384;28;1361;-83
2021/12/01 01:29:34;;;;;;;3.08;2.83;;;;;;;11.16;73.04;99445.25;682142;28;921;-83
2021/12/01 01:29:54;;;;;;;3.25;2.90;;;;;;;11.27;72.94;99467.91;687898;28;1162;-84
2021/12/01 01:30:15;;;;;;;3.17;2.87;;;;;;;11.21;72.57;99480.09;690460;28;1280;-84
2021/12/01 01:30:35;;;;;;;3.00;2.80;;;;;;;11.18;72.85;99464.41;688011;28;1265;-83
2021/12/01 01:30:58;;;;;;;3.20;2.80;;;;;;;11.17;72.84;99456.56;685234;28;1182;-82
2021/12/01 01:31:22;;;;;;;3.00;2.70;;;;;;;11.14;73.06;99482.66;649661;28;1182755;-83
2021/12/01 01:31:43;;;;;;;2.88;2.58;;;;;;;11.11;72.88;99462.63;685486;28;933;-83
2021/12/01 01:32:04;;;;;;;2.40;2.30;;;;;;;11.19;72.93;99478.34;686817;28;1537;-82
2021/12/01 01:32:24;;;;;;;2.60;2.40;;;;;;;11.17;73.01;99461.81;685337;28;1175;-83
2021/12/01 01:32:45;;;;;;;2.50;2.30;;;;;;;11.23;72.99;99470.53;685256;28;1531;-84
2021/12/01 01:33:06;;;;;;;2.55;2.33;;;;;;;11.22;72.71;99449.63;685947;28;1246;-83
2021/12/01 01:33:27;;;;;;;2.50;2.30;;;;;;;11.22;72.94;99450.50;690370;28;1149;-83
2021/12/01 01:33:52;;;;;;;2.60;2.40;;;;;;;11.26;72.77;99447.88;690862;28;1141;-83
2021/12/01 01:34:12;;;;;;;2.45;2.35;;;;;;;11.22;72.86;99455.72;685210;28;1397;-84
2021/12/01 01:34:34;;;;;;;2.37;2.27;;;;;;;11.21;72.84;99448.75;688439;28;1901;-83
2021/12/01 01:34:54;;;;;;;2.20;2.10;;;;;;;11.23;72.40;99452.25;685526;28;1181;-84
2021/12/01 01:35:15;;;;;;;2.10;2.00;;;;;;;11.24;72.73;99448.75;682746;28;1257;-84
2021/12/01 01:35:36;;;;;;;2.20;2.10;;;;;;;11.24;72.83;99445.25;688993;28;1357;-83
2021/12/01 01:35:56;;;;;;;2.22;2.13;;;;;;;11.24;72.78;99443.53;686778;28;1441;-84
2021/12/01 01:36:17;;;;;;;2.20;2.10;;;;;;;11.25;72.80;99449.66;687484;28;1261;-84
2021/12/01 01:36:38;;;;;;;2.20;2.10;;;;;;;11.27;72.96;99460.06;688059;28;1254;-84
2021/12/01 01:37:18;;;;;;;2.30;2.20;;;;;;;11.28;72.81;99456.59;688116;28;740;-83
2021/12/01 01:37:40;;;;;;;2.00;1.90;;;;;;;11.21;73.07;99446.16;688194;28;1672;-83
2021/12/01 01:38:00;;;;;;;2.20;2.10;;;;;;;11.31;72.96;99448.78;690923;28;1587;-82
2021/12/01 01:38:21;;;;;;;2.58;2.30;;;;;;;11.29;72.71;99460.97;690684;28;1127;-83
2021/12/01 01:38:42;;;;;;;2.70;2.40;;;;;;;11.32;72.60;99445.31;685682;28;905;-83
2021/12/01 01:39:04;;;;;;;2.50;2.30;;;;;;;11.23;72.77;99435.69;683964;28;1205;-84
2021/12/01 01:39:25;;;;;;;2.35;2.25;;;;;;;11.20;72.85;99444.38;690335;28;1146;-84
2021/12/01 01:40:04;;;;;;;2.55;2.45;;;;;;;11.24;72.84;99440.94;690889;28;1910;-84
2021/12/01 01:40:25;;;;;;;2.60;2.50;;;;;;;11.31;72.84;99474.91;688292;28;1185;-83
2021/12/01 01:40:46;;;;;;;2.40;2.30;;;;;;;11.33;73.09;99452.28;687435;28;1251;-84
2021/12/01 01:41:09;;;;;;;2.40;2.30;;;;;;;11.27;72.84;99441.78;682701;29;1319;-83
2021/12/01 01:41:29;;;;;;;2.50;2.40;;;;;;;11.39;73.01;99454.91;688029;28;1072;-83
2021/12/01 01:41:50;;;;;;;2.50;2.40;;;;;;;11.21;72.81;99448.75;685547;28;899;-84
2021/12/01 01:42:10;;;;;;;2.65;2.42;;;;;;;11.29;73.05;99455.75;690819;28;1119;-84
2021/12/01 01:42:31;;;;;;;2.80;2.50;;;;;;;11.34;73.18;99447.06;687953;28;1613;-82
2021/12/01 01:42:52;;;;;;;2.73;2.50;;;;;;;11.33;72.85;99441.81;685240;28;1484;-83
2021/12/01 01:43:18;;;;;;;2.33;2.23;;;;;;;11.29;73.07;99440.09;689488;28;1288;-83
2021/12/01 01:43:40;;;;;;;2.50;2.30;;;;;;;11.36;73.12;99440.09;688055;28;1138;-83
2021/12/01 01:44:02;;;;;;;2.50;2.30;;;;;;;11.39;72.79;99452.31;686284;28;1649;-83
2021/12/01 01:44:23;;;;;;;2.60;2.40;;;;;;;11.39;73.01;99439.25;682694;28;1728;-83
2021/12/01 01:44:44;;;;;;;2.60;2.40;;;;;;;11.38;72.66;99442.72;682900;29;1236;-84
2021/12/01 01:45:05;;;;;;;2.80;2.60;;;;;;;11.43;72.66;99437.50;682902;28;1481;-83
2021/12/01 01:45:26;;;;;;;2.67;2.50;;;;;;;11.45;72.73;99441.00;686810;28;1201;-82
2021/12/01 01:45:51;;;;;;;2.60;2.50;;;;;;;11.42;72.91;99420.09;685553;28;1308;-83
2021/12/01 01:46:13;;;;;;;2.70;2.50;;;;;;;11.40;72.61;99429.66;685384;28;1313;-83
2021/12/01 01:46:37;;;;;;;2.80;2.60;;;;;;;11.39;72.54;99470.59;685487;28;1133;-84
2021/12/01 01:46:58;;;;;;;2.75;2.55;;;;;;;11.44;72.82;99434.88;682957;29;1147;-81
2021/12/01 01:47:20;;;;;;;2.80;2.60;;;;;;;11.42;72.48;99426.19;690808;28;1361;-82
2021/12/01 01:48:03;;;;;;;2.63;2.47;;;;;;;11.43;72.70;99443.59;685223;28;1170;-84
2021/12/01 01:49:36;;;;;;;3.00;2.70;;;;;;;11.46;72.64;99448.84;684677;28;1305;-83
2021/12/01 01:50:01;;;;;;;3.03;2.65;;;;;;;11.40;72.72;99440.09;685336;28;886;-83
2021/12/01 01:50:35;;;;;;;3.25;2.90;;;;;;;11.47;72.50;99427.06;688046;28;1283;-83
2021/12/01 01:50:57;;;;;;;3.17;2.80;;;;;;;11.33;72.53;99426.16;688088;28;1694;-82
2021/12/01 01:51:20;;;;;;;2.70;2.50;;;;;;;11.33;72.72;99418.31;687980;28;1074;-82
2021/12/01 01:51:41;;;;;;;2.80;2.60;;;;;;;11.33;72.69;99413.97;682822;29;1427;-82
2021/12/01 01:52:02;;;;;;;2.90;2.70;;;;;;;11.31;72.39;99427.91;687960;28;1291;-83
2021/12/01 01:52:22;;;;;;;2.85;2.65;;;;;;;11.29;72.60;99437.47;687992;28;1772;-83
2021/12/01 01:52:43;;;;;;;2.90;2.70;;;;;;;11.33;72.41;99426.16;690843;28;1250;-83
2021/12/01 01:53:14;;;;;;;3.10;2.80;;;;;;;11.40;72.56;99430.53;687656;28;1083;-82
2021/12/01 01:53:36;;;;;;;3.20;2.55;;;;;;;11.35;72.25;99440.09;681768;28;969;-83
2021/12/01 01:53:57;;;;;;;2.55;2.35;;;;;;;11.34;72.19;99428.78;685482;28;859;-83
2021/12/01 01:54:18;;;;;;;2.40;2.30;;;;;;;11.27;72.42;99431.34;689678;28;1146;-83
2021/12/01 01:54:38;;;;;;;2.30;2.20;;;;;;;11.20;72.36;99420.03;690771;28;1430;-83